Time;durP1;ratioP1;P1;durP2;ratioP2;P2;SDS_P1;SDS_P2;PMS_P1;PMS_P2;Temp;Humidity;BMP_temperature;BMP_pressure;BME280_temperature;BME280_humidity;BME280_pressure;Samples;Min_cycle;Max_cycle;Signal;HPM_P1;HPM_P2
2022/11/19 00:00:18;;;;;;;4.70;1.02;;;3.70;70.60;;;;;;4115382;28;20073;-85
2022/11/19 00:02:38;;;;;;;5.97;1.73;;;3.80;70.50;;;;;;4118249;28;20044;-84
2022/11/19 00:04:59;;;;;;;3.83;0.90;;;3.70;70.60;;;;;;4106689;28;20038;-87
2022/11/19 00:07:19;;;;;;;4.57;1.00;;;3.70;70.80;;;;;;4102276;28;20031;-87
2022/11/19 00:09:40;;;;;;;2.47;1.00;;;3.70;70.70;;;;;;4103495;28;20035;-87
2022/11/19 00:14:22;;;;;;;4.68;1.00;;;3.60;70.90;;;;;;4118846;28;20389;-87
2022/11/19 00:16:23;;;;;;;5.85;1.10;;;3.80;71.40;;;;;;4113468;28;20105;-88
2022/11/19 00:18:24;;;;;;;4.05;0.88;;;3.60;71.60;;;;;;4120947;28;20061;-88
2022/11/19 00:20:25;;;;;;;4.13;1.33;;;3.70;71.60;;;;;;4119086;28;20490;-85
2022/11/19 00:22:26;;;;;;;7.15;1.85;;;3.70;71.30;;;;;;4122021;28;20030;-86
2022/11/19 00:24:46;;;;;;;2.17;0.82;;;3.70;70.90;;;;;;4122099;28;20031;-85
2022/11/19 00:27:07;;;;;;;5.47;1.25;;;3.60;70.60;;;;;;4102258;28;20153;-86
2022/11/19 00:29:28;;;;;;;6.68;1.40;;;3.60;70.50;;;;;;4116007;28;20095;-84
2022/11/19 00:31:28;;;;;;;4.82;1.27;;;3.50;70.30;;;;;;4121392;28;20431;-85
2022/11/19 00:33:29;;;;;;;4.35;1.45;;;3.50;70.30;;;;;;4118888;28;21459;-85
2022/11/19 00:35:53;;;;;;;6.95;1.38;;;3.60;70.70;;;;;;4129610;28;20036;-85
2022/11/19 00:37:54;;;;;;;6.10;0.95;;;3.50;70.50;;;;;;4091383;28;20398;-84
2022/11/19 00:40:15;;;;;;;7.53;1.50;;;3.40;70.40;;;;;;4114447;28;20058;-86
2022/11/19 00:42:35;;;;;;;6.60;2.63;;;3.40;70.80;;;;;;4104832;28;20503;-85
2022/11/19 00:44:56;;;;;;;5.03;1.48;;;3.30;70.80;;;;;;4119514;28;20034;-85
2022/11/19 00:47:16;;;;;;;5.78;1.33;;;3.30;70.80;;;;;;4117180;28;20783;-86
2022/11/19 00:49:37;;;;;;;4.50;1.30;;;3.30;70.80;;;;;;4116905;28;20038;-85
2022/11/19 00:51:58;;;;;;;9.05;1.42;;;3.30;70.90;;;;;;4116579;28;20042;-86
2022/11/19 00:54:01;;;;;;;8.35;1.48;;;3.30;71.10;;;;;;4103924;28;20046;-85
2022/11/19 00:56:23;;;;;;;4.38;1.08;;;3.30;71.60;;;;;;4121644;28;20042;-85
2022/11/19 00:58:45;;;;;;;9.10;1.40;;;3.20;71.40;;;;;;4104110;28;20117;-84
2022/11/19 01:01:07;;;;;;;4.10;1.33;;;3.20;71.60;;;;;;4116916;28;20034;-84
2022/11/19 01:03:31;;;;;;;4.45;0.90;;;3.20;71.80;;;;;;4105404;28;20041;-84
2022/11/19 01:05:53;;;;;;;5.40;1.25;;;3.30;71.80;;;;;;4119609;28;20038;-85
2022/11/19 01:08:13;;;;;;;3.83;1.20;;;3.20;71.70;;;;;;4129054;28;20062;-85
2022/11/19 01:10:34;;;;;;;2.33;1.10;;;3.20;71.60;;;;;;4116018;28;20045;-84
2022/11/19 01:15:34;;;;;;;4.85;1.15;;;3.30;71.40;;;;;;4118119;28;20034;-85
2022/11/19 01:17:55;;;;;;;6.95;1.10;;;3.30;71.40;;;;;;4119999;28;20046;-85
2022/11/19 01:20:15;;;;;;;4.53;1.20;;;3.30;71.40;;;;;;4100710;28;20039;-85
2022/11/19 01:22:36;;;;;;;5.03;1.20;;;3.30;71.70;;;;;;4102335;28;20038;-85
2022/11/19 01:24:56;;;;;;;2.28;1.25;;;3.20;71.70;;;;;;4116368;28;20091;-85
2022/11/19 01:27:17;;;;;;;6.45;1.50;;;3.10;71.30;;;;;;4114631;28;20038;-85
2022/11/19 01:29:18;;;;;;;2.65;1.00;;;3.10;71.40;;;;;;4112260;28;20502;-85
2022/11/19 01:31:24;;;;;;;4.63;1.13;;;3.00;71.50;;;;;;4102034;28;20506;-85
2022/11/19 01:33:25;;;;;;;5.60;1.38;;;3.10;71.50;;;;;;4128931;28;20395;-85
2022/11/19 01:35:25;;;;;;;3.45;1.30;;;3.00;71.50;;;;;;4118716;28;20026;-84
2022/11/19 01:37:26;;;;;;;3.70;0.98;;;3.00;71.40;;;;;;4100522;28;20034;-85
2022/11/19 01:39:27;;;;;;;2.45;0.98;;;3.00;71.00;;;;;;4117215;28;20101;-85
2022/11/19 01:41:30;;;;;;;3.33;1.40;;;3.10;70.90;;;;;;4102142;28;20031;-85
2022/11/19 01:44:04;;;;;;;7.15;1.00;;;3.00;70.40;;;;;;4117955;28;20034;-84
2022/11/19 01:46:05;;;;;;;2.45;0.85;;;3.00;69.90;;;;;;4114667;28;20037;-87
2022/11/19 01:48:29;;;;;;;2.70;1.00;;;3.20;69.70;;;;;;4117527;28;20033;-84
2022/11/19 01:50:33;;;;;;;2.97;1.15;;;3.00;69.60;;;;;;4116251;28;20398;-85
2022/11/19 01:52:33;;;;;;;2.85;1.00;;;3.10;69.70;;;;;;4088118;28;20111;-85
2022/11/19 01:54:46;;;;;;;15.73;1.50;;;3.00;69.60;;;;;;4129796;28;20045;-85
2022/11/19 01:57:11;;;;;;;5.80;1.13;;;3.10;70.10;;;;;;4097632;28;20573;-86
2022/11/19 01:59:32;;;;;;;4.75;1.10;;;3.00;70.20;;;;;;4113190;28;20568;-86
2022/11/19 02:01:53;;;;;;;4.40;1.13;;;2.80;70.50;;;;;;4100606;28;21292;-85
2022/11/19 02:04:16;;;;;;;4.22;0.80;;;2.90;70.30;;;;;;4121566;28;20034;-84
2022/11/19 02:06:38;;;;;;;4.60;1.23;;;2.90;70.00;;;;;;4123288;28;20685;-85
2022/11/19 02:08:58;;;;;;;2.33;1.10;;;3.00;69.90;;;;;;4109813;28;20399;-85
2022/11/19 02:11:40;;;;;;;8.45;1.35;;;2.90;69.50;;;;;;4110914;28;20646;-84
2022/11/19 02:14:01;;;;;;;2.17;0.82;;;2.90;69.30;;;;;;4098088;28;20244;-85
2022/11/19 02:16:43;;;;;;;4.10;1.00;;;2.90;69.20;;;;;;4114393;28;20117;-85
2022/11/19 02:19:23;;;;;;;3.22;1.20;;;2.90;69.00;;;;;;4115560;28;20494;-84
2022/11/19 02:21:36;;;;;;;2.88;0.88;;;2.90;69.00;;;;;;4114273;28;20084;-84
2022/11/19 02:23:59;;;;;;;4.22;1.13;;;2.90;68.80;;;;;;4137346;28;21050;-83
2022/11/19 02:26:37;;;;;;;3.35;0.85;;;2.80;68.70;;;;;;4121122;28;20601;-85
2022/11/19 02:28:46;;;;;;;2.33;0.90;;;2.80;68.90;;;;;;4134249;28;20061;-84
2022/11/19 02:31:38;;;;;;;2.95;0.90;;;2.80;68.60;;;;;;4123809;28;20551;-85
2022/11/19 02:34:04;;;;;;;2.95;0.73;;;2.80;69.10;;;;;;4107434;28;20030;-85
2022/11/19 02:36:16;;;;;;;3.65;1.15;;;2.80;68.30;;;;;;4121978;28;20041;-86
2022/11/19 02:38:40;;;;;;;2.28;0.73;;;2.80;68.20;;;;;;4100639;28;20724;-85
2022/11/19 02:41:32;;;;;;;3.92;0.90;;;2.80;68.20;;;;;;4123372;28;20045;-85
2022/11/19 02:43:38;;;;;;;7.47;0.75;;;2.70;68.10;;;;;;4107960;28;20030;-85
2022/11/19 02:46:11;;;;;;;1.90;0.90;;;2.80;68.20;;;;;;4138581;28;20506;-85
2022/11/19 02:48:40;;;;;;;3.30;0.93;;;2.80;68.10;;;;;;4123342;28;20034;-84
2022/11/19 02:51:03;;;;;;;3.90;0.82;;;2.80;68.00;;;;;;4107257;28;20131;-86
2022/11/19 02:53:24;;;;;;;5.85;1.17;;;2.80;68.00;;;;;;4121213;28;20027;-84
2022/11/19 02:56:09;;;;;;;2.00;0.65;;;2.80;67.90;;;;;;4117261;28;20113;-85
2022/11/19 03:06:27;;;;;;;2.65;0.90;;;2.70;68.20;;;;;;4119345;28;20443;-85
2022/11/19 03:08:47;;;;;;;3.80;1.35;;;2.60;68.20;;;;;;4101405;28;20035;-85
2022/11/19 03:11:18;;;;;;;1.55;0.98;;;2.60;68.20;;;;;;4104758;28;20069;-85
2022/11/19 03:16:54;;;;;;;8.43;0.90;;;2.60;68.20;;;;;;4113781;28;20243;-85
2022/11/19 03:19:42;;;;;;;2.22;0.70;;;2.60;68.50;;;;;;4120321;28;20080;-85
2022/11/19 03:22:16;;;;;;;4.30;1.20;;;2.60;68.50;;;;;;4116511;28;20038;-85
2022/11/19 03:25:09;;;;;;;3.13;0.80;;;2.50;68.50;;;;;;4124638;28;20033;-85
2022/11/19 03:27:44;;;;;;;3.50;1.27;;;2.50;68.20;;;;;;4118581;28;20181;-85
2022/11/19 03:29:52;;;;;;;2.03;0.80;;;2.50;67.70;;;;;;4100509;28;20060;-85
2022/11/19 03:32:04;;;;;;;2.47;0.82;;;2.50;67.70;;;;;;4122790;28;20030;-84
2022/11/19 03:34:13;;;;;;;3.25;1.00;;;2.50;67.50;;;;;;4105509;28;20040;-85
2022/11/19 03:36:18;;;;;;;1.08;0.70;;;2.50;66.90;;;;;;4099828;28;20038;-86
2022/11/19 03:38:49;;;;;;;2.00;0.68;;;2.50;66.90;;;;;;4117336;28;20238;-84
2022/11/19 03:40:52;;;;;;;3.45;0.80;;;2.50;66.80;;;;;;4102290;28;20031;-85
2022/11/19 03:43:01;;;;;;;4.78;0.60;;;2.50;66.40;;;;;;4114760;28;20092;-85
2022/11/19 03:45:14;;;;;;;4.65;0.90;;;2.50;66.20;;;;;;4120072;28;20026;-83
2022/11/19 03:47:37;;;;;;;3.65;0.80;;;2.50;66.10;;;;;;4105086;28;20054;-84
2022/11/19 03:50:38;;;;;;;2.40;0.60;;;2.50;65.70;;;;;;4119111;28;20089;-85
2022/11/19 03:52:58;;;;;;;4.28;0.80;;;2.50;65.70;;;;;;4048960;29;20067;-84
2022/11/19 03:55:25;;;;;;;2.13;0.65;;;2.40;65.30;;;;;;4048102;29;20037;-85
2022/11/19 03:57:46;;;;;;;2.28;1.00;;;2.40;65.30;;;;;;4043980;29;20060;-85
2022/11/19 04:00:07;;;;;;;3.05;0.85;;;2.50;65.50;;;;;;4041586;29;20099;-86
2022/11/19 04:02:28;;;;;;;3.33;1.27;;;2.50;65.50;;;;;;4036132;29;20060;-85
2022/11/19 04:04:48;;;;;;;2.25;1.02;;;2.50;65.70;;;;;;4043827;29;20119;-85
2022/11/19 04:07:17;;;;;;;1.35;0.63;;;2.40;65.80;;;;;;4037821;29;20056;-85
2022/11/19 04:09:39;;;;;;;4.88;0.70;;;2.40;65.70;;;;;;4027310;29;20132;-85
2022/11/19 04:12:01;;;;;;;1.40;0.50;;;2.40;65.50;;;;;;4021499;29;20081;-85
2022/11/19 04:14:22;;;;;;;2.05;0.65;;;2.50;65.40;;;;;;4026697;29;20040;-85
2022/11/19 04:16:42;;;;;;;1.45;0.80;;;2.50;65.30;;;;;;4033131;29;20111;-85
2022/11/19 04:19:03;;;;;;;2.30;0.60;;;2.40;65.40;;;;;;4033900;29;20036;-86
2022/11/19 04:21:24;;;;;;;3.83;0.90;;;2.40;65.60;;;;;;4037645;29;20056;-86
2022/11/19 04:23:44;;;;;;;2.80;0.70;;;2.60;65.70;;;;;;4038502;29;20052;-86
2022/11/19 04:26:05;;;;;;;3.88;0.75;;;2.40;65.50;;;;;;4041274;29;20151;-86
2022/11/19 04:28:25;;;;;;;1.23;0.63;;;2.40;65.70;;;;;;4042451;28;20076;-85
2022/11/19 04:30:46;;;;;;;4.72;1.02;;;2.40;66.00;;;;;;4107328;28;20428;-86
2022/11/19 04:33:07;;;;;;;2.65;0.60;;;2.50;66.20;;;;;;4119815;28;20034;-85
2022/11/19 04:35:27;;;;;;;3.47;0.60;;;2.50;66.20;;;;;;4107085;28;20026;-84
2022/11/19 04:37:28;;;;;;;4.47;0.70;;;2.50;66.20;;;;;;4117122;28;20887;-85
2022/11/19 04:39:49;;;;;;;1.60;0.90;;;2.50;66.20;;;;;;4106358;28;20035;-85
2022/11/19 04:41:52;;;;;;;1.42;0.77;;;2.60;67.10;;;;;;4105516;28;20030;-84
2022/11/19 04:43:54;;;;;;;1.50;0.83;;;2.50;66.20;;;;;;4133024;28;20058;-85
2022/11/19 04:46:15;;;;;;;2.65;0.80;;;2.50;66.40;;;;;;4118509;28;20273;-83
2022/11/19 04:48:35;;;;;;;4.93;1.23;;;2.40;66.40;;;;;;4126798;28;20025;-82
2022/11/19 04:50:56;;;;;;;6.38;1.10;;;2.40;66.20;;;;;;4104654;28;20554;-83
2022/11/19 04:53:17;;;;;;;3.47;0.80;;;2.40;66.30;;;;;;4106138;28;20050;-83
2022/11/19 04:55:37;;;;;;;2.05;0.80;;;2.40;66.40;;;;;;4111491;28;20026;-84
2022/11/19 04:57:58;;;;;;;1.60;0.55;;;2.30;66.00;;;;;;4104796;28;20030;-84
2022/11/19 05:00:19;;;;;;;2.13;0.57;;;2.30;66.00;;;;;;4117495;28;20041;-84
2022/11/19 05:02:40;;;;;;;1.48;0.70;;;2.30;66.20;;;;;;4106686;28;20045;-83
2022/11/19 05:05:00;;;;;;;3.85;0.70;;;2.30;66.00;;;;;;4104297;28;20122;-85
2022/11/19 05:07:21;;;;;;;3.22;0.68;;;2.30;65.90;;;;;;4104941;28;20050;-84
2022/11/19 05:09:21;;;;;;;3.00;0.95;;;2.40;65.70;;;;;;4118502;28;20387;-85
2022/11/19 05:11:22;;;;;;;3.00;0.80;;;2.30;65.60;;;;;;4115916;28;20042;-84
2022/11/19 05:13:43;;;;;;;1.45;0.73;;;2.30;65.50;;;;;;4106569;28;20039;-84
2022/11/19 05:15:45;;;;;;;1.98;0.65;;;2.30;65.20;;;;;;4102326;28;20465;-83
2022/11/19 05:18:05;;;;;;;3.05;0.80;;;2.30;65.20;;;;;;4117834;28;20058;-84
2022/11/19 05:20:26;;;;;;;4.03;0.70;;;2.30;65.10;;;;;;4116574;28;20041;-83
2022/11/19 05:22:47;;;;;;;4.20;0.65;;;2.30;64.90;;;;;;4114292;28;20044;-83
2022/11/19 05:25:08;;;;;;;1.27;0.47;;;2.30;65.10;;;;;;4123436;28;20114;-84
2022/11/19 05:27:08;;;;;;;4.22;0.60;;;2.30;65.20;;;;;;4086939;28;20439;-84
2022/11/19 05:29:29;;;;;;;2.60;0.50;;;2.30;65.40;;;;;;4125802;28;20033;-85
2022/11/19 05:31:49;;;;;;;1.50;0.40;;;2.30;65.30;;;;;;4119029;28;20453;-84
2022/11/19 05:34:10;;;;;;;4.57;0.70;;;2.40;65.40;;;;;;4102848;28;20039;-84
2022/11/19 05:36:31;;;;;;;1.10;0.60;;;2.40;65.50;;;;;;4114705;28;20034;-82
2022/11/19 05:38:51;;;;;;;3.33;0.80;;;2.40;65.60;;;;;;4100295;28;20037;-84
2022/11/19 05:41:02;;;;;;;1.73;0.60;;;2.40;65.60;;;;;;4130073;28;20030;-84
2022/11/19 05:43:23;;;;;;;0.85;0.52;;;2.40;65.80;;;;;;4111796;28;20034;-85
2022/11/19 05:45:44;;;;;;;2.72;0.70;;;2.40;65.70;;;;;;4104060;28;20045;-85
2022/11/19 05:48:05;;;;;;;5.05;0.57;;;2.40;65.80;;;;;;4105512;28;20086;-85
2022/11/19 05:50:26;;;;;;;3.20;0.90;;;2.40;65.80;;;;;;4097629;28;20035;-86
2022/11/19 05:52:47;;;;;;;3.25;0.82;;;2.40;65.90;;;;;;4116675;28;20039;-85
2022/11/19 05:55:07;;;;;;;2.70;0.88;;;2.40;66.00;;;;;;4127685;28;20042;-84
2022/11/19 05:57:28;;;;;;;1.90;0.60;;;2.40;66.40;;;;;;4109440;28;20582;-84
2022/11/19 05:59:49;;;;;;;2.08;0.63;;;2.40;66.70;;;;;;4099469;28;20035;-85
2022/11/19 06:02:10;;;;;;;2.92;0.70;;;2.40;66.70;;;;;;4101718;28;20031;-87
2022/11/19 06:04:31;;;;;;;2.13;0.80;;;2.40;66.90;;;;;;4114982;28;20174;-85
2022/11/19 06:06:52;;;;;;;6.53;0.75;;;2.30;66.90;;;;;;4113960;28;20038;-85
2022/11/19 06:09:15;;;;;;;2.65;1.17;;;2.40;66.90;;;;;;4101145;28;20054;-85
2022/11/19 06:11:51;;;;;;;1.48;0.70;;;2.40;67.00;;;;;;4115291;28;20022;-83
2022/11/19 06:14:16;;;;;;;2.47;0.70;;;2.40;66.90;;;;;;4110888;28;20041;-85
2022/11/19 06:16:37;;;;;;;5.30;0.70;;;2.40;67.10;;;;;;4112713;28;23334;-83
2022/11/19 06:18:57;;;;;;;1.20;0.70;;;2.40;67.20;;;;;;4097648;28;20034;-83
2022/11/19 06:21:18;;;;;;;2.05;0.70;;;2.40;67.30;;;;;;4107745;28;20120;-85
2022/11/19 06:23:38;;;;;;;2.28;0.80;;;2.40;67.30;;;;;;4098602;28;20452;-86
2022/11/19 06:25:59;;;;;;;4.35;1.20;;;2.40;67.60;;;;;;4116977;28;20030;-84
2022/11/19 06:28:20;;;;;;;3.15;0.95;;;2.40;67.90;;;;;;4105070;28;20118;-84
2022/11/19 06:30:40;;;;;;;1.98;1.10;;;2.40;67.90;;;;;;4110363;28;20043;-85
2022/11/19 06:33:01;;;;;;;2.45;1.13;;;2.40;67.90;;;;;;4114500;28;20482;-85
2022/11/19 06:35:21;;;;;;;2.20;0.90;;;2.40;68.10;;;;;;4099915;28;20487;-84
2022/11/19 06:37:42;;;;;;;3.00;1.20;;;2.50;68.30;;;;;;4115017;28;20050;-84
2022/11/19 06:40:03;;;;;;;4.30;1.17;;;2.50;68.30;;;;;;4117761;28;20532;-85
2022/11/19 06:42:36;;;;;;;3.67;0.90;;;2.50;68.40;;;;;;4100504;28;20549;-85
2022/11/19 06:44:56;;;;;;;1.60;0.80;;;2.50;68.40;;;;;;4096159;28;20085;-85
2022/11/19 06:47:17;;;;;;;2.33;1.15;;;2.50;68.60;;;;;;4115586;28;20513;-86
2022/11/19 06:49:38;;;;;;;1.48;0.80;;;2.60;68.70;;;;;;4113022;28;20443;-87
2022/11/19 06:51:58;;;;;;;2.50;1.02;;;2.60;68.70;;;;;;4107511;28;21865;-88
2022/11/19 06:54:19;;;;;;;3.88;0.90;;;2.60;68.90;;;;;;4126033;28;20030;-90
2022/11/19 06:56:39;;;;;;;3.95;1.00;;;2.60;69.00;;;;;;4116892;28;20049;-86
2022/11/19 06:59:00;;;;;;;2.67;0.90;;;2.60;69.30;;;;;;4112671;28;20410;-86
2022/11/19 07:01:21;;;;;;;5.03;1.00;;;2.60;69.20;;;;;;4102721;28;20271;-86
2022/11/19 07:03:41;;;;;;;3.88;1.20;;;2.60;69.60;;;;;;4106424;28;20607;-86
2022/11/19 07:05:42;;;;;;;7.82;1.30;;;2.60;69.90;;;;;;4125624;28;20030;-86
2022/11/19 07:07:43;;;;;;;1.58;0.88;;;2.60;70.00;;;;;;4116004;28;20034;-87
2022/11/19 07:09:43;;;;;;;5.13;1.15;;;2.60;69.80;;;;;;4110705;28;20141;-86
2022/11/19 07:11:44;;;;;;;4.22;1.20;;;2.60;69.80;;;;;;4114909;28;20034;-86
2022/11/19 07:13:57;;;;;;;3.53;0.80;;;2.60;70.10;;;;;;4108361;28;20022;-88
2022/11/19 07:16:01;;;;;;;3.72;0.80;;;2.60;69.90;;;;;;4097623;28;20140;-85
2022/11/19 07:18:01;;;;;;;2.50;1.10;;;2.60;69.90;;;;;;4114483;28;20038;-88
2022/11/19 07:20:03;;;;;;;2.35;1.02;;;2.60;70.10;;;;;;4116470;28;20038;-88
2022/11/19 07:22:04;;;;;;;3.85;1.20;;;2.60;70.30;;;;;;4097597;28;20034;-88
2022/11/19 07:24:07;;;;;;;3.75;1.15;;;2.60;70.40;;;;;;4098485;28;20030;-88
2022/11/19 07:26:08;;;;;;;2.28;0.90;;;2.60;70.50;;;;;;4121408;28;20133;-86
2022/11/19 07:28:08;;;;;;;2.10;0.73;;;2.70;70.50;;;;;;4111091;28;20093;-85
2022/11/19 07:30:09;;;;;;;1.42;0.70;;;2.70;70.60;;;;;;4098136;28;20038;-86
2022/11/19 07:32:10;;;;;;;2.17;0.90;;;2.70;70.80;;;;;;4100923;28;20391;-86
2022/11/19 07:34:11;;;;;;;2.20;0.75;;;2.70;70.70;;;;;;4121407;28;20034;-86
2022/11/19 07:36:12;;;;;;;2.13;0.88;;;2.70;71.50;;;;;;4105310;28;20022;-87
2022/11/19 07:38:12;;;;;;;3.28;0.98;;;2.70;70.80;;;;;;4110646;28;20117;-87
2022/11/19 07:40:15;;;;;;;2.85;0.90;;;2.80;71.00;;;;;;4116688;28;20039;-84
2022/11/19 07:44:35;;;;;;;2.58;1.00;;;2.80;71.00;;;;;;4117724;28;20034;-85
2022/11/19 07:46:36;;;;;;;4.63;0.90;;;2.80;71.90;;;;;;4097673;28;20133;-85
2022/11/19 07:48:37;;;;;;;2.35;0.85;;;2.90;71.20;;;;;;4128711;28;20024;-85
2022/11/19 07:50:39;;;;;;;4.63;1.30;;;2.80;71.20;;;;;;4126675;28;20310;-86
2022/11/19 07:52:40;;;;;;;2.22;0.90;;;2.80;71.30;;;;;;4125257;28;20391;-85
2022/11/19 07:54:41;;;;;;;4.45;1.30;;;2.90;71.30;;;;;;4108967;28;20033;-88
2022/11/19 07:56:42;;;;;;;2.25;1.17;;;2.90;71.30;;;;;;4091498;28;20031;-88
2022/11/19 07:58:43;;;;;;;4.63;1.08;;;3.00;71.40;;;;;;4106473;28;20041;-89
2022/11/19 08:00:44;;;;;;;2.03;1.08;;;2.90;71.30;;;;;;4124449;28;20034;-88
2022/11/19 08:02:45;;;;;;;1.70;0.82;;;3.00;71.40;;;;;;4118858;28;20054;-88
2022/11/19 08:04:45;;;;;;;2.28;0.90;;;2.90;71.50;;;;;;4118426;28;20204;-86
2022/11/19 08:06:46;;;;;;;3.60;0.63;;;2.90;71.60;;;;;;4124306;28;21110;-85
2022/11/19 08:08:47;;;;;;;5.20;0.98;;;3.00;71.60;;;;;;4114454;28;20026;-84
2022/11/19 08:10:47;;;;;;;5.55;1.25;;;3.00;71.70;;;;;;4114443;28;20026;-85
2022/11/19 08:13:01;;;;;;;1.83;0.77;;;3.00;71.90;;;;;;4103605;28;20023;-84
2022/11/19 08:15:02;;;;;;;2.50;0.80;;;3.00;71.90;;;;;;4093241;28;20054;-85
2022/11/19 08:19:23;;;;;;;1.95;0.80;;;3.10;71.80;;;;;;4101632;28;20034;-85
2022/11/19 08:21:23;;;;;;;4.00;0.80;;;3.10;71.80;;;;;;4102384;28;20490;-85
2022/11/19 08:23:24;;;;;;;3.65;0.70;;;3.10;71.70;;;;;;4116526;28;20026;-84
2022/11/19 08:25:25;;;;;;;7.32;0.90;;;3.10;71.70;;;;;;4113019;28;20082;-85
2022/11/19 08:27:25;;;;;;;2.53;0.73;;;3.10;71.90;;;;;;4086780;28;20058;-85
2022/11/19 08:29:26;;;;;;;4.47;0.65;;;3.20;72.00;;;;;;4096376;28;20034;-85
2022/11/19 08:31:27;;;;;;;1.83;0.80;;;3.10;71.80;;;;;;4095493;28;20026;-85
2022/11/19 08:33:28;;;;;;;3.13;0.70;;;3.20;72.00;;;;;;4116498;28;20066;-85
2022/11/19 08:35:29;;;;;;;5.72;0.95;;;3.10;72.00;;;;;;4111412;28;20019;-85
2022/11/19 08:37:29;;;;;;;1.20;0.70;;;3.10;71.90;;;;;;4094190;28;20078;-84
2022/11/19 08:39:30;;;;;;;2.72;0.93;;;3.20;71.90;;;;;;4087447;28;20075;-86
2022/11/19 08:43:51;;;;;;;10.50;1.17;;;3.20;72.00;;;;;;4115726;28;20153;-85
2022/11/19 08:45:53;;;;;;;2.45;0.75;;;3.20;71.90;;;;;;4114379;28;20066;-84
2022/11/19 08:47:54;;;;;;;1.50;0.90;;;3.20;71.90;;;;;;4120280;28;20094;-85
2022/11/19 08:49:55;;;;;;;3.28;1.00;;;3.20;71.80;;;;;;4112625;28;20487;-85
2022/11/19 08:51:56;;;;;;;3.22;1.00;;;3.30;71.90;;;;;;4097696;28;20099;-86
2022/11/19 08:53:57;;;;;;;2.83;1.33;;;3.30;71.70;;;;;;4115137;28;20037;-84
2022/11/19 08:55:58;;;;;;;7.05;1.67;;;3.30;71.70;;;;;;4116164;28;20026;-83
2022/11/19 08:58:01;;;;;;;4.68;1.50;;;3.40;72.40;;;;;;4111453;28;20073;-86
2022/11/19 09:00:02;;;;;;;3.88;1.80;;;3.40;71.60;;;;;;4099724;28;20034;-84
2022/11/19 09:02:03;;;;;;;7.28;1.80;;;3.40;71.60;;;;;;4102029;28;20027;-86
2022/11/19 09:04:03;;;;;;;4.45;1.90;;;3.50;71.60;;;;;;4116962;28;20064;-86
2022/11/19 09:06:05;;;;;;;5.25;2.05;;;3.50;71.60;;;;;;4101350;28;20391;-86
2022/11/19 09:08:06;;;;;;;3.97;1.90;;;3.50;71.60;;;;;;4129409;28;20033;-86
2022/11/19 09:10:08;;;;;;;4.68;1.73;;;3.70;71.70;;;;;;4114293;28;20038;-86
2022/11/19 09:12:09;;;;;;;5.07;1.65;;;3.60;71.60;;;;;;4121416;28;20869;-86
2022/11/19 09:14:10;;;;;;;10.07;2.00;;;3.60;71.60;;;;;;4118119;28;20030;-84
2022/11/19 09:16:11;;;;;;;6.85;1.65;;;3.70;71.60;;;;;;4133313;28;20175;-88
2022/11/19 09:18:13;;;;;;;3.70;1.50;;;3.70;71.60;;;;;;4102454;28;20027;-88
2022/11/19 09:20:14;;;;;;;4.45;1.08;;;3.70;71.60;;;;;;4121563;28;20019;-85
2022/11/19 09:22:15;;;;;;;5.15;1.05;;;3.70;71.70;;;;;;4110961;28;20112;-84
2022/11/19 09:24:16;;;;;;;4.28;1.45;;;3.70;71.70;;;;;;4110860;28;20049;-85
2022/11/19 09:26:17;;;;;;;4.88;1.20;;;3.80;71.70;;;;;;4099787;28;20037;-85
2022/11/19 09:28:18;;;;;;;5.53;1.38;;;3.80;72.50;;;;;;4112173;28;20026;-85
2022/11/19 09:30:19;;;;;;;5.63;1.38;;;3.80;71.90;;;;;;4110577;28;20034;-86
2022/11/19 09:32:19;;;;;;;3.17;1.30;;;3.80;71.90;;;;;;4119085;28;20029;-85
2022/11/19 09:34:20;;;;;;;7.90;1.10;;;3.90;72.10;;;;;;4125257;28;20172;-86
2022/11/19 09:36:20;;;;;;;3.45;0.95;;;3.90;71.90;;;;;;4104615;28;20404;-86
2022/11/19 09:38:21;;;;;;;4.53;1.00;;;3.90;72.20;;;;;;4116039;28;20410;-85
2022/11/19 09:40:22;;;;;;;4.30;1.17;;;4.00;72.10;;;;;;4093227;28;20458;-87
2022/11/19 09:42:35;;;;;;;6.07;1.00;;;4.00;72.10;;;;;;4112605;28;20034;-84
2022/11/19 09:44:59;;;;;;;4.13;1.20;;;4.00;72.20;;;;;;4113021;28;20655;-86
2022/11/19 09:47:27;;;;;;;4.75;1.30;;;4.00;72.30;;;;;;4087758;28;20037;-85
2022/11/19 09:49:49;;;;;;;3.10;1.35;;;4.00;72.30;;;;;;4112981;28;20055;-86
2022/11/19 09:51:57;;;;;;;4.88;1.20;;;4.10;72.40;;;;;;4105184;28;20034;-85
2022/11/19 09:54:03;;;;;;;4.07;1.20;;;4.10;72.20;;;;;;4123298;28;20034;-86
2022/11/19 09:56:05;;;;;;;3.13;1.10;;;4.10;71.90;;;;;;4135963;28;20053;-85
2022/11/19 09:58:15;;;;;;;5.78;1.10;;;4.10;71.70;;;;;;4112629;28;20026;-85
2022/11/19 10:00:21;;;;;;;2.80;1.00;;;4.10;71.40;;;;;;4086038;28;20034;-84
2022/11/19 10:02:23;;;;;;;2.40;0.90;;;4.10;71.10;;;;;;4110317;28;20037;-85
2022/11/19 10:04:28;;;;;;;3.25;0.90;;;4.10;70.90;;;;;;4118913;28;20141;-85
2022/11/19 10:06:43;;;;;;;5.22;1.08;;;4.10;70.80;;;;;;4097320;28;20034;-84
2022/11/19 10:08:59;;;;;;;2.80;0.90;;;4.10;70.30;;;;;;4129156;28;20029;-86
2022/11/19 10:11:30;;;;;;;4.43;0.68;;;4.10;69.70;;;;;;4089919;28;20039;-84
2022/11/19 10:13:56;;;;;;;2.97;0.80;;;4.10;69.10;;;;;;4083642;28;20134;-85
2022/11/19 10:16:24;;;;;;;3.53;0.50;;;4.10;68.30;;;;;;4086056;28;20046;-85
2022/11/19 10:18:40;;;;;;;2.22;0.80;;;4.20;67.50;;;;;;4119221;28;20037;-85
2022/11/19 10:20:56;;;;;;;2.58;0.50;;;4.10;67.40;;;;;;4090331;28;20038;-85
2022/11/19 10:23:15;;;;;;;4.65;0.73;;;4.10;67.80;;;;;;4092260;28;20031;-85
2022/11/19 10:25:28;;;;;;;5.13;0.88;;;4.10;67.10;;;;;;4099986;28;20098;-85
2022/11/19 10:27:36;;;;;;;1.73;0.73;;;4.10;66.80;;;;;;4095338;28;20038;-86
2022/11/19 10:29:39;;;;;;;3.00;0.70;;;4.10;66.70;;;;;;4113463;28;20036;-84
2022/11/19 10:31:45;;;;;;;3.27;0.60;;;4.10;66.90;;;;;;4115005;28;21373;-85
2022/11/19 10:34:04;;;;;;;5.18;0.43;;;4.10;67.00;;;;;;4110129;28;20297;-85
2022/11/19 10:36:31;;;;;;;2.60;0.70;;;4.20;67.00;;;;;;4100568;28;20034;-87
2022/11/19 10:38:56;;;;;;;3.13;0.68;;;4.20;66.60;;;;;;4090715;28;20526;-86
2022/11/19 10:41:02;;;;;;;1.00;0.57;;;4.20;65.70;;;;;;4114034;28;20027;-87
2022/11/19 10:43:44;;;;;;;1.45;0.60;;;4.30;65.70;;;;;;4110535;28;20315;-87
2022/11/19 10:45:45;;;;;;;3.60;0.60;;;4.30;66.00;;;;;;4103000;28;20125;-88
2022/11/19 10:48:05;;;;;;;2.28;0.80;;;4.40;66.10;;;;;;4118102;28;21815;-87
2022/11/19 10:50:06;;;;;;;2.28;1.20;;;4.40;65.90;;;;;;4098456;28;20038;-89
2022/11/19 10:52:24;;;;;;;3.92;1.05;;;4.50;66.30;;;;;;4102001;28;20038;-88
2022/11/19 10:54:27;;;;;;;3.15;1.15;;;4.50;66.50;;;;;;4130529;28;20026;-87
2022/11/19 10:56:39;;;;;;;4.78;1.40;;;4.60;67.00;;;;;;4121126;28;20034;-86
2022/11/19 10:58:52;;;;;;;3.95;1.23;;;4.60;67.60;;;;;;4117927;28;20054;-85
2022/11/19 11:00:54;;;;;;;2.95;1.13;;;4.60;66.80;;;;;;4119263;28;20022;-86
2022/11/19 11:03:01;;;;;;;5.30;1.70;;;4.70;66.70;;;;;;4117972;28;20030;-86
2022/11/19 11:05:04;;;;;;;2.65;0.68;;;4.60;66.50;;;;;;4133703;28;20287;-87
2022/11/19 11:07:05;;;;;;;2.80;0.80;;;4.70;65.50;;;;;;4107344;28;20383;-85
2022/11/19 11:09:12;;;;;;;3.70;0.77;;;4.70;65.00;;;;;;4098304;28;20090;-86
2022/11/19 11:16:14;;;;;;;3.13;0.57;;;4.70;63.50;;;;;;4112481;28;20034;-87
2022/11/19 11:18:16;;;;;;;0.88;0.30;;;4.70;63.50;;;;;;4096993;28;20037;-86
2022/11/19 11:20:17;;;;;;;2.37;0.70;;;4.80;62.70;;;;;;4095933;28;20031;-86
2022/11/19 11:22:18;;;;;;;3.22;0.52;;;4.60;63.00;;;;;;4116999;28;20930;-84
2022/11/19 11:24:23;;;;;;;5.32;0.70;;;4.80;62.90;;;;;;4106671;28;20034;-84
2022/11/19 11:26:26;;;;;;;4.03;0.52;;;4.60;63.10;;;;;;4104679;28;20027;-85
2022/11/19 11:28:28;;;;;;;0.50;0.45;;;4.60;62.50;;;;;;4115516;28;20030;-85
2022/11/19 11:30:29;;;;;;;1.90;0.60;;;4.60;61.90;;;;;;4108744;28;20131;-85
2022/11/19 11:32:31;;;;;;;1.40;0.70;;;4.70;61.50;;;;;;4116477;28;20073;-85
2022/11/19 11:34:38;;;;;;;2.78;0.43;;;4.60;61.10;;;;;;4109848;28;20069;-85
2022/11/19 11:36:39;;;;;;;15.07;0.93;;;4.70;61.30;;;;;;4084522;28;20097;-84
2022/11/19 11:38:46;;;;;;;3.05;0.60;;;4.60;60.90;;;;;;4113249;28;20041;-85
2022/11/19 11:41:05;;;;;;;4.78;0.50;;;4.60;60.80;;;;;;4067844;28;20150;-85
2022/11/19 11:43:17;;;;;;;3.80;0.60;;;4.60;61.70;;;;;;4114392;28;20410;-85
2022/11/19 11:45:33;;;;;;;3.28;0.95;;;4.60;61.10;;;;;;4096802;28;20034;-86
2022/11/19 11:47:38;;;;;;;2.97;0.60;;;4.60;61.10;;;;;;4082916;28;20106;-85
2022/11/19 11:49:42;;;;;;;4.63;0.80;;;4.60;61.30;;;;;;4116221;28;20340;-85
2022/11/19 11:51:42;;;;;;;3.53;0.85;;;4.60;61.00;;;;;;4096415;28;20035;-85
2022/11/19 11:53:43;;;;;;;1.48;0.80;;;4.60;61.40;;;;;;4100371;28;20598;-83
2022/11/19 11:55:44;;;;;;;3.15;0.73;;;4.60;61.60;;;;;;4084945;28;20416;-84
2022/11/19 11:58:04;;;;;;;2.05;0.73;;;4.60;61.80;;;;;;4084245;28;20118;-85
2022/11/19 12:00:28;;;;;;;3.90;0.60;;;4.60;61.90;;;;;;4119425;28;20210;-84
2022/11/19 12:02:34;;;;;;;2.55;0.80;;;4.60;61.70;;;;;;4116434;28;20031;-85
2022/11/19 12:04:34;;;;;;;3.15;0.60;;;4.60;61.40;;;;;;4133052;28;20056;-84
2022/11/19 12:06:46;;;;;;;2.75;0.70;;;4.60;61.10;;;;;;4118022;28;20439;-85
2022/11/19 12:08:51;;;;;;;2.60;0.65;;;4.60;61.20;;;;;;4119172;28;20032;-84
2022/11/19 12:11:14;;;;;;;2.33;0.70;;;4.60;60.30;;;;;;4115372;28;20210;-85